createdAt,value
2023-03-18T00:00:09.986Z,100.00
2023-03-18T00:02:38.149Z,100.00
2023-03-18T00:05:07.476Z,100.00
2023-03-18T00:07:36.122Z,100.00
2023-03-18T00:10:03.607Z,100.00
2023-03-18T00:12:30.151Z,100.00
2023-03-18T00:14:56.543Z,100.00
2023-03-18T00:17:23.003Z,100.00
2023-03-18T00:19:50.271Z,100.00
2023-03-18T00:22:17.202Z,100.00
2023-03-18T00:24:43.700Z,100.00
2023-03-18T00:27:10.171Z,100.00
2023-03-18T00:29:36.542Z,100.00
2023-03-18T00:32:03.374Z,100.00
2023-03-18T00:34:29.762Z,100.00
2023-03-18T00:37:00.156Z,100.00
2023-03-18T00:39:28.897Z,100.00
2023-03-18T00:41:56.880Z,100.00
2023-03-18T00:44:25.297Z,100.00
2023-03-18T00:46:52.088Z,100.00
2023-03-18T00:49:19.111Z,100.00
2023-03-18T00:51:46.281Z,100.00
2023-03-18T00:54:17.816Z,100.00
2023-03-18T00:56:44.149Z,100.00
2023-03-18T00:59:10.539Z,100.00
2023-03-18T01:01:37.785Z,100.00
2023-03-18T01:04:04.781Z,100.00
2023-03-18T01:06:33.866Z,100.00
2023-03-18T01:09:01.418Z,100.00
2023-03-18T01:11:28.837Z,100.00
2023-03-18T01:13:55.359Z,100.00
2023-03-18T01:16:22.580Z,100.00
2023-03-18T01:18:49.154Z,100.00
2023-03-18T01:21:17.005Z,100.00
2023-03-18T01:23:43.461Z,100.00
2023-03-18T01:26:10.783Z,100.00
2023-03-18T01:28:37.488Z,100.00
2023-03-18T01:31:04.589Z,100.00
2023-03-18T01:33:31.495Z,100.00
2023-03-18T01:36:00.081Z,100.00
2023-03-18T01:38:31.107Z,100.00
2023-03-18T01:40:59.524Z,100.00
2023-03-18T01:43:30.485Z,100.00
2023-03-18T01:45:59.762Z,100.00
2023-03-18T01:48:31.644Z,100.00
2023-03-18T01:51:06.274Z,100.00
2023-03-18T01:53:39.045Z,100.00
2023-03-18T01:56:06.714Z,100.00
2023-03-18T01:58:38.451Z,100.00
2023-03-18T02:01:09.876Z,100.00
2023-03-18T02:03:36.822Z,100.00
2023-03-18T02:06:03.649Z,100.00
2023-03-18T02:08:30.153Z,100.00
2023-03-18T02:10:56.695Z,100.00
2023-03-18T02:13:24.801Z,100.00
2023-03-18T02:16:01.478Z,100.00
2023-03-18T02:18:34.458Z,100.00
2023-03-18T02:21:20.657Z,100.00
2023-03-18T02:24:09.433Z,100.00
2023-03-18T02:26:59.393Z,100.00
2023-03-18T02:29:31.162Z,100.00
2023-03-18T02:32:01.904Z,100.00
2023-03-18T02:34:29.899Z,100.00
2023-03-18T02:36:57.422Z,100.00
2023-03-18T02:39:23.958Z,100.00
2023-03-18T02:41:50.612Z,100.00
2023-03-18T02:44:19.270Z,100.00
2023-03-18T02:46:59.279Z,100.00
2023-03-18T02:49:27.518Z,100.00
2023-03-18T02:51:54.925Z,100.00
2023-03-18T02:54:24.084Z,100.00
2023-03-18T02:56:51.369Z,100.00
2023-03-18T02:59:19.025Z,100.00
2023-03-18T03:01:48.326Z,100.00
2023-03-18T03:04:16.605Z,100.00
2023-03-18T03:06:44.008Z,100.00
2023-03-18T03:09:13.536Z,100.00
2023-03-18T03:11:40.831Z,100.00
2023-03-18T03:14:08.396Z,100.00
2023-03-18T03:16:36.092Z,100.00
2023-03-18T03:19:02.709Z,100.00
2023-03-18T03:21:29.150Z,100.00
2023-03-18T03:23:55.551Z,100.00
2023-03-18T03:26:22.172Z,100.00
2023-03-18T03:28:48.638Z,100.00
2023-03-18T03:31:15.426Z,100.00
2023-03-18T03:33:43.626Z,100.00
2023-03-18T03:36:13.430Z,100.00
2023-03-18T03:38:41.595Z,100.00
2023-03-18T03:41:10.302Z,100.00
2023-03-18T03:43:38.760Z,100.00
2023-03-18T03:46:05.859Z,100.00
2023-03-18T03:48:32.430Z,100.00
2023-03-18T03:50:58.867Z,100.00
2023-03-18T03:53:25.312Z,100.00
2023-03-18T03:55:52.367Z,100.00
2023-03-18T03:58:18.784Z,100.00
2023-03-18T04:00:45.140Z,100.00
2023-03-18T04:03:11.826Z,100.00
2023-03-18T04:05:38.303Z,100.00
2023-03-18T04:08:05.115Z,100.00
2023-03-18T04:10:32.098Z,100.00
2023-03-18T04:12:58.707Z,100.00
2023-03-18T04:15:25.718Z,100.00
2023-03-18T04:17:52.092Z,100.00
2023-03-18T04:20:18.926Z,100.00
2023-03-18T04:22:45.676Z,100.00
2023-03-18T04:25:12.582Z,100.00
2023-03-18T04:27:39.134Z,100.00
2023-03-18T04:30:08.125Z,100.00
2023-03-18T04:32:34.503Z,100.00
2023-03-18T04:35:00.877Z,100.00
2023-03-18T04:37:27.268Z,100.00
2023-03-18T04:39:53.818Z,100.00
2023-03-18T04:42:20.159Z,100.00
2023-03-18T04:44:46.528Z,100.00
2023-03-18T04:47:13.727Z,100.00
2023-03-18T04:49:40.498Z,100.00
2023-03-18T04:52:07.498Z,100.00
2023-03-18T04:54:33.960Z,100.00
2023-03-18T04:57:00.697Z,100.00
2023-03-18T04:59:27.171Z,100.00
2023-03-18T05:01:53.992Z,100.00
2023-03-18T05:04:20.383Z,100.00
2023-03-18T05:06:47.228Z,100.00
2023-03-18T05:09:13.612Z,100.00
2023-03-18T05:11:39.923Z,100.00
2023-03-18T05:14:06.679Z,100.00
2023-03-18T05:16:33.372Z,100.00
2023-03-18T05:18:59.782Z,100.00
2023-03-18T05:21:26.264Z,100.00
2023-03-18T05:23:52.641Z,100.00
2023-03-18T05:26:19.048Z,100.00
2023-03-18T05:28:45.472Z,100.00
2023-03-18T05:31:13.024Z,100.00
2023-03-18T05:33:39.415Z,100.00
2023-03-18T05:36:06.171Z,100.00
2023-03-18T05:38:32.643Z,100.00
2023-03-18T05:40:59.030Z,100.00
2023-03-18T05:43:26.187Z,100.00
2023-03-18T05:45:52.660Z,100.00
2023-03-18T05:48:19.202Z,100.00
2023-03-18T05:50:46.720Z,100.00
2023-03-18T05:53:13.320Z,100.00
2023-03-18T05:55:40.408Z,100.00
2023-03-18T05:58:07.295Z,100.00
2023-03-18T06:00:34.429Z,100.00
2023-03-18T06:03:01.765Z,100.00
2023-03-18T06:05:29.615Z,100.00
2023-03-18T06:07:56.917Z,100.00
2023-03-18T06:10:25.378Z,100.00
2023-03-18T06:12:52.635Z,100.00
2023-03-18T06:15:19.480Z,100.00
2023-03-18T06:17:46.341Z,100.00
2023-03-18T06:20:14.731Z,100.00
2023-03-18T06:22:41.938Z,100.00
2023-03-18T06:25:08.742Z,100.00
2023-03-18T06:27:35.578Z,100.00
2023-03-18T06:30:04.504Z,100.00
2023-03-18T06:32:31.215Z,100.00
2023-03-18T06:34:57.680Z,100.00
2023-03-18T06:37:24.466Z,100.00
2023-03-18T06:39:51.181Z,100.00
2023-03-18T06:42:17.817Z,100.00
2023-03-18T06:44:50.389Z,100.00
2023-03-18T06:47:19.080Z,100.00
2023-03-18T06:49:45.636Z,100.00
2023-03-18T06:52:12.837Z,100.00
2023-03-18T06:54:39.289Z,100.00
2023-03-18T06:57:06.401Z,100.00
2023-03-18T06:59:33.066Z,100.00
2023-03-18T07:01:59.641Z,100.00
2023-03-18T07:04:26.248Z,100.00
2023-03-18T07:06:52.633Z,100.00
2023-03-18T07:09:19.359Z,98.97
2023-03-18T07:11:46.884Z,98.48
2023-03-18T07:14:14.544Z,98.05
2023-03-18T07:16:41.239Z,97.59
2023-03-18T07:19:07.707Z,97.28
2023-03-18T07:21:35.315Z,96.43
2023-03-18T07:24:03.876Z,95.94
2023-03-18T07:26:30.439Z,95.08
2023-03-18T07:28:56.910Z,94.25
2023-03-18T07:31:23.912Z,93.90
2023-03-18T07:33:50.546Z,93.34
2023-03-18T07:36:17.587Z,92.83
2023-03-18T07:38:43.983Z,91.98
2023-03-18T07:41:11.163Z,91.70
2023-03-18T07:43:38.568Z,91.15
2023-03-18T07:46:05.653Z,90.69
2023-03-18T07:48:34.172Z,89.92
2023-03-18T07:51:01.188Z,90.19
2023-03-18T07:53:28.617Z,89.89
2023-03-18T07:55:55.533Z,89.71
2023-03-18T07:58:22.229Z,89.19
2023-03-18T08:00:49.539Z,88.91
2023-03-18T08:03:16.537Z,88.33
2023-03-18T08:05:42.836Z,88.41
2023-03-18T08:08:09.798Z,88.21
2023-03-18T08:10:36.636Z,87.88
2023-03-18T08:13:03.913Z,87.65
2023-03-18T08:15:30.677Z,87.44
2023-03-18T08:17:57.457Z,87.10
2023-03-18T08:20:23.892Z,86.95
2023-03-18T08:22:50.765Z,87.31
2023-03-18T08:25:17.281Z,87.39
2023-03-18T08:27:43.735Z,87.28
2023-03-18T08:30:11.460Z,86.11
2023-03-18T08:32:38.420Z,85.28
2023-03-18T08:35:05.485Z,84.61
2023-03-18T08:37:32.561Z,84.41
2023-03-18T08:39:59.032Z,84.11
2023-03-18T08:42:25.482Z,83.85
2023-03-18T08:44:51.796Z,83.73
2023-03-18T08:47:18.179Z,83.28
2023-03-18T08:49:44.631Z,82.87
2023-03-18T08:52:11.703Z,82.85
2023-03-18T08:54:38.610Z,82.52
2023-03-18T08:57:05.093Z,81.35
2023-03-18T08:59:31.411Z,81.15
2023-03-18T09:01:57.760Z,80.55
2023-03-18T09:04:25.742Z,80.52
2023-03-18T09:06:52.061Z,79.76
2023-03-18T09:09:18.598Z,79.81
2023-03-18T09:11:46.353Z,79.84
2023-03-18T09:14:13.328Z,80.27
2023-03-18T09:16:40.374Z,79.93
2023-03-18T09:19:07.129Z,79.80
2023-03-18T09:21:33.474Z,79.69
2023-03-18T09:23:59.837Z,79.70
2023-03-18T09:26:26.155Z,79.31
2023-03-18T09:28:52.550Z,79.19
2023-03-18T09:31:19.280Z,79.09
2023-03-18T09:33:46.968Z,79.04
2023-03-18T09:36:13.917Z,79.17
2023-03-18T09:38:41.259Z,78.67
2023-03-18T09:41:29.780Z,78.29
2023-03-18T09:44:10.584Z,78.16
2023-03-18T09:47:18.604Z,77.83
2023-03-18T09:49:59.315Z,77.94
2023-03-18T09:52:35.870Z,77.65
2023-03-18T09:55:11.563Z,77.44
2023-03-18T09:57:46.970Z,77.35
2023-03-18T10:00:24.310Z,76.75
2023-03-18T10:02:55.478Z,77.11
2023-03-18T10:05:50.959Z,77.08
2023-03-18T10:08:43.373Z,76.05
2023-03-18T10:12:01.283Z,75.50
2023-03-18T10:14:39.574Z,74.98
2023-03-18T10:17:18.140Z,74.84
2023-03-18T10:19:48.708Z,74.11
2023-03-18T10:22:40.504Z,73.59
2023-03-18T10:25:27.712Z,73.06
2023-03-18T10:28:10.432Z,72.38
2023-03-18T10:30:45.895Z,72.69
2023-03-18T10:33:31.071Z,73.04
2023-03-18T10:36:18.605Z,73.16
2023-03-18T10:38:48.577Z,73.22
2023-03-18T10:41:32.535Z,72.80
2023-03-18T10:44:02.908Z,72.72
2023-03-18T10:46:30.445Z,71.64
2023-03-18T10:49:11.677Z,71.33
2023-03-18T10:51:54.235Z,71.40
2023-03-18T10:54:32.544Z,71.47
2023-03-18T10:56:59.006Z,70.97
2023-03-18T10:59:28.526Z,70.91
2023-03-18T11:02:02.363Z,70.69
2023-03-18T11:04:31.930Z,70.78
2023-03-18T11:07:02.758Z,70.22
2023-03-18T11:09:39.408Z,69.70
2023-03-18T11:12:19.355Z,69.70
2023-03-18T11:14:50.264Z,68.85
2023-03-18T11:17:28.188Z,68.39
2023-03-18T11:20:07.591Z,68.14
2023-03-18T11:22:36.594Z,68.07
2023-03-18T11:25:18.241Z,67.09
2023-03-18T11:27:51.197Z,66.49
2023-03-18T11:30:34.166Z,66.62
2023-03-18T11:33:10.771Z,66.86
2023-03-18T11:35:51.027Z,66.14
2023-03-18T11:38:18.710Z,64.81
2023-03-18T11:40:46.294Z,64.43
2023-03-18T11:43:22.391Z,63.88
2023-03-18T11:45:52.179Z,63.47
2023-03-18T11:48:41.070Z,62.13
2023-03-18T11:51:17.466Z,61.49
2023-03-18T11:54:02.855Z,61.16
2023-03-18T11:56:42.468Z,61.44
2023-03-18T11:59:44.379Z,61.48
2023-03-18T12:02:45.119Z,61.93
2023-03-18T12:05:33.674Z,62.22
2023-03-18T12:08:12.676Z,62.08
2023-03-18T12:10:57.791Z,62.32
2023-03-18T12:13:37.604Z,62.04
2023-03-18T12:16:09.837Z,61.65
2023-03-18T12:19:00.706Z,62.50
2023-03-18T12:21:45.796Z,62.53
2023-03-18T12:24:54.800Z,62.43
2023-03-18T12:27:41.651Z,61.66
2023-03-18T12:30:15.290Z,61.63
2023-03-18T12:33:04.183Z,61.53
2023-03-18T12:35:46.589Z,61.31
2023-03-18T12:38:35.574Z,61.36
2023-03-18T12:41:07.831Z,60.91
2023-03-18T12:43:59.078Z,59.87
2023-03-18T12:46:37.249Z,59.32
2023-03-18T12:49:36.280Z,58.97
2023-03-18T12:52:11.211Z,58.46
2023-03-18T12:54:49.906Z,58.76
2023-03-18T12:57:39.046Z,58.91
2023-03-18T13:00:18.803Z,59.20
2023-03-18T13:02:52.875Z,59.64
2023-03-18T13:05:48.960Z,60.08
2023-03-18T13:08:39.246Z,59.92
2023-03-18T13:11:29.052Z,60.59
2023-03-18T13:14:03.488Z,60.84
2023-03-18T13:16:32.695Z,60.98
2023-03-18T13:18:59.616Z,60.79
2023-03-18T13:21:30.881Z,61.16
2023-03-18T13:24:38.893Z,61.30
2023-03-18T13:27:28.649Z,61.62
2023-03-18T13:30:20.217Z,61.98
2023-03-18T13:33:04.675Z,62.19
2023-03-18T13:35:46.152Z,62.63
2023-03-18T13:38:43.240Z,63.05
2023-03-18T13:41:32.627Z,63.63
2023-03-18T13:44:04.145Z,64.20
2023-03-18T13:46:32.994Z,65.34
2023-03-18T13:49:01.806Z,66.11
2023-03-18T13:51:28.739Z,67.24
2023-03-18T13:54:02.078Z,68.31
2023-03-18T13:56:43.906Z,69.12
2023-03-18T13:59:35.440Z,70.05
2023-03-18T14:02:23.724Z,71.17
2023-03-18T14:04:51.647Z,72.42
2023-03-18T14:07:20.237Z,73.41
2023-03-18T14:09:49.414Z,74.46
2023-03-18T14:12:20.533Z,75.09
2023-03-18T14:15:02.416Z,76.30
2023-03-18T14:17:38.167Z,77.35
2023-03-18T14:20:27.107Z,78.03
2023-03-18T14:22:56.079Z,79.55
2023-03-18T14:25:27.225Z,80.82
2023-03-18T14:27:59.261Z,81.74
2023-03-18T14:30:32.070Z,82.99
2023-03-18T14:33:01.158Z,84.25
2023-03-18T14:35:49.722Z,84.98
2023-03-18T14:38:24.708Z,85.87
2023-03-18T14:40:54.967Z,87.03
2023-03-18T14:43:29.972Z,87.02
2023-03-18T14:45:58.888Z,87.05
2023-03-18T14:48:33.966Z,86.87
2023-03-18T14:51:20.101Z,87.61
2023-03-18T14:53:52.772Z,87.97
2023-03-18T14:56:25.116Z,88.30
2023-03-18T14:58:56.655Z,88.16
2023-03-18T15:01:28.062Z,88.15
2023-03-18T15:03:57.380Z,87.19
2023-03-18T15:06:26.881Z,86.46
2023-03-18T15:09:00.761Z,85.83
2023-03-18T15:11:28.096Z,84.92
2023-03-18T15:13:56.867Z,84.46
2023-03-18T15:16:25.329Z,84.05
2023-03-18T15:18:54.759Z,83.87
2023-03-18T15:21:26.114Z,83.70
2023-03-18T15:23:56.492Z,83.38
2023-03-18T15:26:37.828Z,82.24
2023-03-18T15:29:33.721Z,81.86
2023-03-18T15:32:23.998Z,80.55
2023-03-18T15:35:05.888Z,79.56
2023-03-18T15:37:40.551Z,79.02
2023-03-18T15:40:30.190Z,78.21
2023-03-18T15:43:03.246Z,78.62
2023-03-18T15:45:30.546Z,78.60
2023-03-18T15:47:58.406Z,78.61
2023-03-18T15:50:30.594Z,78.63
2023-03-18T15:53:03.118Z,78.70
2023-03-18T15:55:36.482Z,78.37
2023-03-18T15:58:15.525Z,78.28
2023-03-18T16:00:42.149Z,78.36
2023-03-18T16:03:18.982Z,78.35
2023-03-18T16:05:45.380Z,78.21
2023-03-18T16:08:13.993Z,78.23
2023-03-18T16:10:41.387Z,77.85
2023-03-18T16:13:15.842Z,77.74
2023-03-18T16:15:42.452Z,77.62
2023-03-18T16:18:10.208Z,77.33
2023-03-18T16:20:36.706Z,77.56
2023-03-18T16:23:03.052Z,77.65
2023-03-18T16:25:29.519Z,77.67
2023-03-18T16:27:58.710Z,77.21
2023-03-18T16:30:30.820Z,77.09
2023-03-18T16:32:58.132Z,76.93
2023-03-18T16:35:33.831Z,76.66
2023-03-18T16:38:01.163Z,76.10
2023-03-18T16:40:30.003Z,75.49
2023-03-18T16:42:56.531Z,74.77
2023-03-18T16:45:31.301Z,73.87
2023-03-18T16:48:01.723Z,72.52
2023-03-18T16:50:33.278Z,71.34
2023-03-18T16:52:59.736Z,70.26
2023-03-18T16:55:26.904Z,69.53
2023-03-18T16:57:58.107Z,69.24
2023-03-18T17:00:29.969Z,68.47
2023-03-18T17:02:56.326Z,68.46
2023-03-18T17:05:22.727Z,67.96
2023-03-18T17:07:50.378Z,67.59
2023-03-18T17:10:20.425Z,67.78
2023-03-18T17:12:59.438Z,67.33
2023-03-18T17:15:31.743Z,67.62
2023-03-18T17:17:59.756Z,67.54
2023-03-18T17:20:29.137Z,67.37
2023-03-18T17:22:55.797Z,67.30
2023-03-18T17:25:25.726Z,67.32
2023-03-18T17:27:55.870Z,67.38
2023-03-18T17:30:24.030Z,67.47
2023-03-18T17:32:50.900Z,67.62
2023-03-18T17:35:22.090Z,67.62
2023-03-18T17:37:49.101Z,67.52
2023-03-18T17:40:18.346Z,67.39
2023-03-18T17:42:45.648Z,67.41
2023-03-18T17:45:32.852Z,67.40
2023-03-18T17:48:26.387Z,67.59
2023-03-18T17:50:59.651Z,67.81
2023-03-18T17:53:37.124Z,67.87
2023-03-18T17:56:08.450Z,67.75
2023-03-18T17:58:35.277Z,68.07
2023-03-18T18:01:15.289Z,68.66
2023-03-18T18:03:41.859Z,69.12
2023-03-18T18:06:15.763Z,69.54
2023-03-18T18:08:42.901Z,69.57
2023-03-18T18:11:21.638Z,69.97
2023-03-18T18:13:49.074Z,70.52
2023-03-18T18:16:15.832Z,70.96
2023-03-18T18:18:42.676Z,71.22
2023-03-18T18:21:18.840Z,71.95
2023-03-18T18:23:45.801Z,72.70
2023-03-18T18:26:17.363Z,74.00
2023-03-18T18:28:48.020Z,74.47
2023-03-18T18:31:17.641Z,74.70
2023-03-18T18:33:45.582Z,75.20
2023-03-18T18:36:13.737Z,75.95
2023-03-18T18:38:40.430Z,76.15
2023-03-18T18:41:07.280Z,76.43
2023-03-18T18:43:33.692Z,77.05
2023-03-18T18:46:00.398Z,77.03
2023-03-18T18:48:32.733Z,77.28
2023-03-18T18:51:00.333Z,77.30
2023-03-18T18:53:32.132Z,77.74
2023-03-18T18:56:01.028Z,78.29
2023-03-18T18:58:30.290Z,78.56
2023-03-18T19:00:57.841Z,78.32
2023-03-18T19:03:29.009Z,77.93
2023-03-18T19:05:55.640Z,77.76
2023-03-18T19:08:26.643Z,77.62
2023-03-18T19:10:58.075Z,77.18
2023-03-18T19:13:25.772Z,76.87
2023-03-18T19:15:55.621Z,76.35
2023-03-18T19:18:24.841Z,76.28
2023-03-18T19:20:53.113Z,76.85
2023-03-18T19:23:26.593Z,76.86
2023-03-18T19:25:53.404Z,76.96
2023-03-18T19:28:55.138Z,76.97
2023-03-18T19:31:26.697Z,77.42
2023-03-18T19:33:53.839Z,78.19
2023-03-18T19:36:27.470Z,78.39
2023-03-18T19:38:55.552Z,77.72
2023-03-18T19:41:22.115Z,77.52
2023-03-18T19:43:48.855Z,77.72
2023-03-18T19:46:23.711Z,77.65
2023-03-18T19:48:50.681Z,78.04
2023-03-18T19:51:17.100Z,78.50
2023-03-18T19:53:45.260Z,78.65
2023-03-18T19:56:26.542Z,78.85
2023-03-18T19:58:58.028Z,79.27
2023-03-18T20:01:27.068Z,79.62
2023-03-18T20:03:58.113Z,81.28
2023-03-18T20:06:25.622Z,81.84
2023-03-18T20:08:52.127Z,81.58
2023-03-18T20:11:20.976Z,81.88
2023-03-18T20:13:48.148Z,81.84
2023-03-18T20:16:16.259Z,83.00
2023-03-18T20:18:42.756Z,83.10
2023-03-18T20:21:22.080Z,83.37
2023-03-18T20:23:49.832Z,83.72
2023-03-18T20:26:16.455Z,84.23
2023-03-18T20:28:45.437Z,84.77
2023-03-18T20:31:12.024Z,85.04
2023-03-18T20:33:38.416Z,85.02
2023-03-18T20:36:06.095Z,84.66
2023-03-18T20:38:35.283Z,84.44
2023-03-18T20:41:02.111Z,84.25
2023-03-18T20:43:29.257Z,83.97
2023-03-18T20:45:57.386Z,84.22
2023-03-18T20:48:23.944Z,84.46
2023-03-18T20:50:51.466Z,83.90
2023-03-18T20:53:21.872Z,84.10
2023-03-18T20:55:49.491Z,84.33
2023-03-18T20:58:21.427Z,84.81
2023-03-18T21:00:48.210Z,84.93
2023-03-18T21:03:24.025Z,85.55
2023-03-18T21:05:52.206Z,85.65
2023-03-18T21:08:19.180Z,86.19
2023-03-18T21:10:46.084Z,86.35
2023-03-18T21:13:32.033Z,86.49
2023-03-18T21:16:00.086Z,86.48
2023-03-18T21:18:26.813Z,86.49
2023-03-18T21:20:53.828Z,86.54
2023-03-18T21:23:28.630Z,87.15
2023-03-18T21:25:56.120Z,87.54
2023-03-18T21:28:25.499Z,88.08
2023-03-18T21:30:56.230Z,88.32
2023-03-18T21:33:31.236Z,88.27
2023-03-18T21:35:57.827Z,88.22
2023-03-18T21:38:31.768Z,87.94
2023-03-18T21:40:59.104Z,87.92
2023-03-18T21:43:32.753Z,87.79
2023-03-18T21:46:00.347Z,88.09
2023-03-18T21:48:27.195Z,88.21
2023-03-18T21:50:54.011Z,88.21
2023-03-18T21:53:23.082Z,88.17
2023-03-18T21:55:50.667Z,87.75
2023-03-18T21:58:19.265Z,87.56
2023-03-18T22:00:49.369Z,87.02
2023-03-18T22:03:16.919Z,86.92
2023-03-18T22:05:43.820Z,86.82
2023-03-18T22:08:10.326Z,86.78
2023-03-18T22:10:36.869Z,86.22
2023-03-18T22:13:18.184Z,85.38
2023-03-18T22:15:47.063Z,84.87
2023-03-18T22:18:14.758Z,84.61
2023-03-18T22:20:41.866Z,84.89
2023-03-18T22:23:27.262Z,84.88
2023-03-18T22:25:56.476Z,84.93
2023-03-18T22:28:24.741Z,84.81
2023-03-18T22:30:52.717Z,84.90
2023-03-18T22:33:31.749Z,84.58
2023-03-18T22:35:58.270Z,84.75
2023-03-18T22:38:25.772Z,84.74
2023-03-18T22:40:55.380Z,84.94
2023-03-18T22:43:34.583Z,85.13
2023-03-18T22:46:05.161Z,84.69
2023-03-18T22:48:32.175Z,84.67
2023-03-18T22:51:00.100Z,84.66
2023-03-18T22:53:39.532Z,84.58
2023-03-18T22:56:10.041Z,84.75
2023-03-18T22:58:36.462Z,85.23
2023-03-18T23:01:04.240Z,84.97
2023-03-18T23:03:36.807Z,84.72
2023-03-18T23:06:03.944Z,84.48
2023-03-18T23:08:31.242Z,84.47
2023-03-18T23:11:00.867Z,84.67
2023-03-18T23:13:36.272Z,84.78
2023-03-18T23:16:05.601Z,84.95
2023-03-18T23:18:32.422Z,84.49
2023-03-18T23:20:59.160Z,83.42
2023-03-18T23:23:26.018Z,83.18
2023-03-18T23:25:52.691Z,82.99
2023-03-18T23:28:19.458Z,82.96
2023-03-18T23:30:51.556Z,82.75
2023-03-18T23:33:18.957Z,82.69
2023-03-18T23:35:46.130Z,82.41
2023-03-18T23:38:12.565Z,82.80
2023-03-18T23:40:38.970Z,82.44
2023-03-18T23:43:06.567Z,82.52
2023-03-18T23:45:33.420Z,82.52
2023-03-18T23:47:59.979Z,82.51
2023-03-18T23:50:26.277Z,82.31
2023-03-18T23:52:52.615Z,82.76
2023-03-18T23:55:33.597Z,82.89
2023-03-18T23:58:00.786Z,83.26
